AR54 weather

Ralph Fulmer Field
Cabot, Arkansas, United States

Public forecast

Using degrees Fahrenheit for public forecast. Weather courtesy of forecast.io.

METAR (pilot weather report)

Closest report is Little Rock Air Force Base, 11.6 nm (21.4 km) W. Retrieved 2019/09/21 08:56 UTC (59 minutes ago):

KLRF 210856Z 00000KT 10SM FEW100 23/20 A3012 RMK AO2A SLPNO ALSTG ESTMD 56003 $

TAF (pilot weather forecast)

Closest forecast is Little Rock Air Force Base, 11.6 nm (21.4 km) W. Retrieved 2019/09/21 07:07 UTC (3 hours ago):

TAF KLRF 210700Z 2107/2213 12006KT 9999 SCT040 BKN080 OVC130 QNH3009INS BECMG 2113/2114 16010G15KT 9999 FEW040 SCT070 SCT200 QNH3007INS BECMG 2122/2123 18006KT 9999 FEW030 SCT060 SCT140 QNH3006INS TX31/2121Z TN20/2110Z